<?xml version="1.0" encoding="UTF-8" standalone="no" ?>
<gpx xmlns="http://www.topografix.com/GPX/1/1" xmlns:xsi="http://www.w3.org/2001/XMLSchema-instance" xsi:schemaLocation="http://www.topografix.com/GPX/1/1 http://www.topografix.com/GPX/1/1/gpx.xsd" version="1.1" creator="VisuGPX - https://www.visugpx.com">
  <metadata>
    <name>GR441 Kevin</name>
  </metadata>
  <wpt lat="45.86793" lon="2.95388">
    <ele>900.5</ele>
    <name><![CDATA[Bivy 1]]></name>
    <type><![CDATA[camping]]></type>
  </wpt>
  <wpt lat="45.77933" lon="2.86085">
    <ele>758</ele>
    <name><![CDATA[Bivy 2]]></name>
    <desc><![CDATA[Bivouac 2]]></desc>
    <type><![CDATA[camping]]></type>
  </wpt>
  <wpt lat="45.64793" lon="2.85852">
    <ele>1207.1</ele>
    <name><![CDATA[Bivy 3]]></name>
    <type><![CDATA[camping]]></type>
  </wpt>
  <wpt lat="45.71022" lon="2.94378">
    <ele>1043.6</ele>
    <name><![CDATA[Bivy 4]]></name>
    <type><![CDATA[camping]]></type>
  </wpt>
  <wpt lat="45.7932" lon="2.9464">
    <ele>1028.1</ele>
    <name><![CDATA[Bivy 5]]></name>
    <type><![CDATA[camping]]></type>
  </wpt>
  <wpt lat="45.86932" lon="2.98248">
    <ele>807</ele>
    <name><![CDATA[Bivy 6a]]></name>
    <type><![CDATA[camping]]></type>
  </wpt>
  <wpt lat="45.88162" lon="3.03012">
    <ele>659.4</ele>
    <name><![CDATA[Bivy 6b]]></name>
    <type><![CDATA[camping]]></type>
  </wpt>
  <wpt lat="45.90557" lon="2.99635">
    <ele>720.2</ele>
    <name><![CDATA[Départ / Arrivée1]]></name>
    <type><![CDATA[user]]></type>
  </wpt>
  <trk>
    <name><![CDATA[J2]]></name>
    <extensions>
      <line xmlns="http://www.topografix.com/GPX/gpx_style/0/2">
        <color>00f900</color>
        <width>4</width>
      </line>
    </extensions>
    <trkseg>
      <trkpt lat="45.8679" lon="2.95387">
        <ele>911.614924</ele>
        <time>2022-03-05T19:28:10Z</time>
      </trkpt>
      <trkpt lat="45.86782" lon="2.95299">
        <ele>912.496163</ele>
        <time>2022-03-05T19:29:13Z</time>
      </trkpt>
      <trkpt lat="45.86771" lon="2.95237">
        <ele>912.185254</ele>
        <time>2022-03-05T19:29:58Z</time>
      </trkpt>
      <trkpt lat="45.86768" lon="2.95166">
        <ele>909.732002</ele>
        <time>2022-03-05T19:30:53Z</time>
      </trkpt>
      <trkpt lat="45.86786" lon="2.94976">
        <ele>902.750419</ele>
        <time>2022-03-05T19:33:22Z</time>
      </trkpt>
      <trkpt lat="45.86788" lon="2.94972">
        <ele>902.530589</ele>
        <time>2022-03-05T19:33:26Z</time>
      </trkpt>
      <trkpt lat="45.86825" lon="2.94858">
        <ele>896.242768</ele>
        <time>2022-03-05T19:35:07Z</time>
      </trkpt>
      <trkpt lat="45.86799" lon="2.94643">
        <ele>885.700803</ele>
        <time>2022-03-05T19:38:01Z</time>
      </trkpt>
      <trkpt lat="45.868" lon="2.94556">
        <ele>881.613432</ele>
        <time>2022-03-05T19:39:10Z</time>
      </trkpt>
      <trkpt lat="45.86728" lon="2.94494">
        <ele>877.394541</ele>
        <time>2022-03-05T19:40:44Z</time>
      </trkpt>
      <trkpt lat="45.86658" lon="2.94444">
        <ele>874.590745</ele>
        <time>2022-03-05T19:42:08Z</time>
      </trkpt>
      <trkpt lat="45.86602" lon="2.94378">
        <ele>872.459723</ele>
        <time>2022-03-05T19:43:23Z</time>
      </trkpt>
      <trkpt lat="45.86469" lon="2.94179">
        <ele>870.760891</ele>
        <time>2022-03-05T19:46:38Z</time>
      </trkpt>
      <trkpt lat="45.86383" lon="2.94076">
        <ele>869.264153</ele>
        <time>2022-03-05T19:48:33Z</time>
      </trkpt>
      <trkpt lat="45.86349" lon="2.94023">
        <ele>868.639131</ele>
        <time>2022-03-05T19:49:25Z</time>
      </trkpt>
      <trkpt lat="45.86322" lon="2.9399">
        <ele>868.292446</ele>
        <time>2022-03-05T19:50:02Z</time>
      </trkpt>
      <trkpt lat="45.86293" lon="2.93936">
        <ele>867.839324</ele>
        <time>2022-03-05T19:50:51Z</time>
      </trkpt>
      <trkpt lat="45.86292" lon="2.93903">
        <ele>867.614869</ele>
        <time>2022-03-05T19:51:14Z</time>
      </trkpt>
      <trkpt lat="45.86373" lon="2.93497">
        <ele>868.366038</ele>
        <time>2022-03-05T19:56:12Z</time>
      </trkpt>
      <trkpt lat="45.86289" lon="2.93209">
        <ele>872.856634</ele>
        <time>2022-03-05T20:00:06Z</time>
      </trkpt>
      <trkpt lat="45.86257" lon="2.93187">
        <ele>873.825966</ele>
        <time>2022-03-05T20:00:46Z</time>
      </trkpt>
      <trkpt lat="45.86192" lon="2.9319">
        <ele>875.551818</ele>
        <time>2022-03-05T20:01:59Z</time>
      </trkpt>
      <trkpt lat="45.86173" lon="2.93205">
        <ele>876.023088</ele>
        <time>2022-03-05T20:02:23Z</time>
      </trkpt>
      <trkpt lat="45.86093" lon="2.93239">
        <ele>877.8047</ele>
        <time>2022-03-05T20:03:53Z</time>
      </trkpt>
      <trkpt lat="45.86023" lon="2.9322">
        <ele>879.26877</ele>
        <time>2022-03-05T20:05:08Z</time>
      </trkpt>
      <trkpt lat="45.86004" lon="2.93155">
        <ele>879.703615</ele>
        <time>2022-03-05T20:05:59Z</time>
      </trkpt>
      <trkpt lat="45.86026" lon="2.93014">
        <ele>880.588639</ele>
        <time>2022-03-05T20:07:42Z</time>
      </trkpt>
      <trkpt lat="45.86044" lon="2.92859">
        <ele>881.465925</ele>
        <time>2022-03-05T20:09:35Z</time>
      </trkpt>
      <trkpt lat="45.86012" lon="2.92592">
        <ele>882.734512</ele>
        <time>2022-03-05T20:12:49Z</time>
      </trkpt>
      <trkpt lat="45.86012" lon="2.92542">
        <ele>882.930238</ele>
        <time>2022-03-05T20:13:24Z</time>
      </trkpt>
      <trkpt lat="45.86018" lon="2.92505">
        <ele>883.080814</ele>
        <time>2022-03-05T20:13:52Z</time>
      </trkpt>
      <trkpt lat="45.86017" lon="2.92459">
        <ele>883.253253</ele>
        <time>2022-03-05T20:14:24Z</time>
      </trkpt>
      <trkpt lat="45.86006" lon="2.92418">
        <ele>883.387143</ele>
        <time>2022-03-05T20:14:55Z</time>
      </trkpt>
      <trkpt lat="45.85982" lon="2.92388">
        <ele>883.521827</ele>
        <time>2022-03-05T20:15:27Z</time>
      </trkpt>
      <trkpt lat="45.85963" lon="2.9227">
        <ele>883.885763</ele>
        <time>2022-03-05T20:16:52Z</time>
      </trkpt>
      <trkpt lat="45.85964" lon="2.92214">
        <ele>884.281829</ele>
        <time>2022-03-05T20:17:33Z</time>
      </trkpt>
      <trkpt lat="45.85952" lon="2.92136">
        <ele>885.463118</ele>
        <time>2022-03-05T20:18:32Z</time>
      </trkpt>
      <trkpt lat="45.85944" lon="2.92114">
        <ele>885.81992</ele>
        <time>2022-03-05T20:18:50Z</time>
      </trkpt>
      <trkpt lat="45.85938" lon="2.92109">
        <ele>885.975439</ele>
        <time>2022-03-05T20:18:58Z</time>
      </trkpt>
      <trkpt lat="45.85888" lon="2.92128">
        <ele>887.074507</ele>
        <time>2022-03-05T20:19:54Z</time>
      </trkpt>
      <trkpt lat="45.85848" lon="2.9214">
        <ele>887.91963</ele>
        <time>2022-03-05T20:20:39Z</time>
      </trkpt>
      <trkpt lat="45.85822" lon="2.92169">
        <ele>888.609485</ele>
        <time>2022-03-05T20:21:16Z</time>
      </trkpt>
      <trkpt lat="45.85774" lon="2.92206">
        <ele>889.763584</ele>
        <time>2022-03-05T20:22:16Z</time>
      </trkpt>
      <trkpt lat="45.85679" lon="2.92249">
        <ele>891.565911</ele>
        <time>2022-03-05T20:24:01Z</time>
      </trkpt>
      <trkpt lat="45.85535" lon="2.91975">
        <ele>890.507271</ele>
        <time>2022-03-05T20:28:03Z</time>
      </trkpt>
      <trkpt lat="45.85507" lon="2.91948">
        <ele>890.189281</ele>
        <time>2022-03-05T20:28:37Z</time>
      </trkpt>
      <trkpt lat="45.85428" lon="2.91798">
        <ele>888.698759</ele>
        <time>2022-03-05T20:30:52Z</time>
      </trkpt>
      <trkpt lat="45.8541" lon="2.91765">
        <ele>888.296164</ele>
        <time>2022-03-05T20:31:22Z</time>
      </trkpt>
      <trkpt lat="45.85403" lon="2.91764">
        <ele>888.198847</ele>
        <time>2022-03-05T20:31:29Z</time>
      </trkpt>
      <trkpt lat="45.85391" lon="2.91707">
        <ele>887.621752</ele>
        <time>2022-03-05T20:32:12Z</time>
      </trkpt>
      <trkpt lat="45.85379" lon="2.91593">
        <ele>886.240239</ele>
        <time>2022-03-05T20:33:35Z</time>
      </trkpt>
      <trkpt lat="45.85361" lon="2.91584">
        <ele>885.82552</ele>
        <time>2022-03-05T20:33:55Z</time>
      </trkpt>
      <trkpt lat="45.85332" lon="2.91542">
        <ele>884.961301</ele>
        <time>2022-03-05T20:34:37Z</time>
      </trkpt>
      <trkpt lat="45.85309" lon="2.91488">
        <ele>884.022159</ele>
        <time>2022-03-05T20:35:23Z</time>
      </trkpt>
      <trkpt lat="45.85269" lon="2.91427">
        <ele>882.638119</ele>
        <time>2022-03-05T20:36:26Z</time>
      </trkpt>
      <trkpt lat="45.85261" lon="2.91406">
        <ele>882.179955</ele>
        <time>2022-03-05T20:36:43Z</time>
      </trkpt>
      <trkpt lat="45.85257" lon="2.91374">
        <ele>881.539534</ele>
        <time>2022-03-05T20:37:07Z</time>
      </trkpt>
      <trkpt lat="45.85244" lon="2.91345">
        <ele>880.863433</ele>
        <time>2022-03-05T20:37:33Z</time>
      </trkpt>
      <trkpt lat="45.85239" lon="2.91324">
        <ele>880.417854</ele>
        <time>2022-03-05T20:37:50Z</time>
      </trkpt>
      <trkpt lat="45.85237" lon="2.91317">
        <ele>880.277387</ele>
        <time>2022-03-05T20:37:55Z</time>
      </trkpt>
      <trkpt lat="45.85166" lon="2.91273">
        <ele>878.09309</ele>
        <time>2022-03-05T20:39:17Z</time>
      </trkpt>
      <trkpt lat="45.85143" lon="2.91266">
        <ele>877.58138</ele>
        <time>2022-03-05T20:39:41Z</time>
      </trkpt>
      <trkpt lat="45.85103" lon="2.91273">
        <ele>876.670538</ele>
        <time>2022-03-05T20:40:24Z</time>
      </trkpt>
      <trkpt lat="45.85018" lon="2.91237">
        <ele>874.662862</ele>
        <time>2022-03-05T20:41:57Z</time>
      </trkpt>
      <trkpt lat="45.84989" lon="2.91229">
        <ele>874.010904</ele>
        <time>2022-03-05T20:42:27Z</time>
      </trkpt>
      <trkpt lat="45.84967" lon="2.9123">
        <ele>873.41553</ele>
        <time>2022-03-05T20:42:51Z</time>
      </trkpt>
      <trkpt lat="45.84903" lon="2.9122">
        <ele>871.734417</ele>
        <time>2022-03-05T20:43:58Z</time>
      </trkpt>
      <trkpt lat="45.84858" lon="2.91196">
        <ele>870.488871</ele>
        <time>2022-03-05T20:44:48Z</time>
      </trkpt>
      <trkpt lat="45.84833" lon="2.91161">
        <ele>869.576846</ele>
        <time>2022-03-05T20:45:26Z</time>
      </trkpt>
      <trkpt lat="45.84806" lon="2.9107">
        <ele>866.587716</ele>
        <time>2022-03-05T20:46:41Z</time>
      </trkpt>
      <trkpt lat="45.84706" lon="2.9103">
        <ele>861.908935</ele>
        <time>2022-03-05T20:48:35Z</time>
      </trkpt>
      <trkpt lat="45.84638" lon="2.91019">
        <ele>858.956605</ele>
        <time>2022-03-05T20:49:51Z</time>
      </trkpt>
      <trkpt lat="45.84644" lon="2.90881">
        <ele>854.894007</ele>
        <time>2022-03-05T20:51:36Z</time>
      </trkpt>
      <trkpt lat="45.84619" lon="2.90783">
        <ele>852.121294</ele>
        <time>2022-03-05T20:52:53Z</time>
      </trkpt>
      <trkpt lat="45.84618" lon="2.90766">
        <ele>851.712071</ele>
        <time>2022-03-05T20:53:05Z</time>
      </trkpt>
      <trkpt lat="45.84628" lon="2.90683">
        <ele>849.644762</ele>
        <time>2022-03-05T20:54:08Z</time>
      </trkpt>
      <trkpt lat="45.84615" lon="2.90623">
        <ele>848.096838</ele>
        <time>2022-03-05T20:54:55Z</time>
      </trkpt>
      <trkpt lat="45.84617" lon="2.90599">
        <ele>847.49709</ele>
        <time>2022-03-05T20:55:13Z</time>
      </trkpt>
      <trkpt lat="45.84634" lon="2.90529">
        <ele>844.990401</ele>
        <time>2022-03-05T20:56:09Z</time>
      </trkpt>
      <trkpt lat="45.84639" lon="2.90493">
        <ele>843.72221</ele>
        <time>2022-03-05T20:56:37Z</time>
      </trkpt>
      <trkpt lat="45.84631" lon="2.90377">
        <ele>839.674626</ele>
        <time>2022-03-05T20:58:07Z</time>
      </trkpt>
      <trkpt lat="45.84624" lon="2.90338">
        <ele>838.272177</ele>
        <time>2022-03-05T20:58:40Z</time>
      </trkpt>
      <trkpt lat="45.84588" lon="2.90243">
        <ele>834.525618</ele>
        <time>2022-03-05T21:00:03Z</time>
      </trkpt>
      <trkpt lat="45.84562" lon="2.90152">
        <ele>831.088413</ele>
        <time>2022-03-05T21:01:18Z</time>
      </trkpt>
      <trkpt lat="45.84649" lon="2.90089">
        <ele>826.564092</ele>
        <time>2022-03-05T21:03:04Z</time>
      </trkpt>
      <trkpt lat="45.84648" lon="2.90079">
        <ele>826.266086</ele>
        <time>2022-03-05T21:03:12Z</time>
      </trkpt>
      <trkpt lat="45.84645" lon="2.90067">
        <ele>825.863996</ele>
        <time>2022-03-05T21:03:21Z</time>
      </trkpt>
      <trkpt lat="45.84675" lon="2.89998">
        <ele>823.365992</ele>
        <time>2022-03-05T21:04:22Z</time>
      </trkpt>
      <trkpt lat="45.84679" lon="2.89978">
        <ele>822.743636</ele>
        <time>2022-03-05T21:04:38Z</time>
      </trkpt>
      <trkpt lat="45.84676" lon="2.89927">
        <ele>821.128545</ele>
        <time>2022-03-05T21:05:18Z</time>
      </trkpt>
      <trkpt lat="45.84713" lon="2.8988">
        <ele>818.718986</ele>
        <time>2022-03-05T21:06:12Z</time>
      </trkpt>
      <trkpt lat="45.8472" lon="2.89862">
        <ele>818.03201</ele>
        <time>2022-03-05T21:06:28Z</time>
      </trkpt>
      <trkpt lat="45.84725" lon="2.89852">
        <ele>817.603647</ele>
        <time>2022-03-05T21:06:38Z</time>
      </trkpt>
      <trkpt lat="45.84753" lon="2.8981">
        <ele>815.639396</ele>
        <time>2022-03-05T21:07:23Z</time>
      </trkpt>
      <trkpt lat="45.84781" lon="2.89785">
        <ele>814.039364</ele>
        <time>2022-03-05T21:07:59Z</time>
      </trkpt>
      <trkpt lat="45.84825" lon="2.8976">
        <ele>812.502374</ele>
        <time>2022-03-05T21:08:51Z</time>
      </trkpt>
      <trkpt lat="45.84837" lon="2.89759">
        <ele>812.417491</ele>
        <time>2022-03-05T21:09:04Z</time>
      </trkpt>
      <trkpt lat="45.84828" lon="2.89671">
        <ele>811.987495</ele>
        <time>2022-03-05T21:10:08Z</time>
      </trkpt>
      <trkpt lat="45.84826" lon="2.89633">
        <ele>811.797772</ele>
        <time>2022-03-05T21:10:36Z</time>
      </trkpt>
      <trkpt lat="45.84868" lon="2.89484">
        <ele>812.020295</ele>
        <time>2022-03-05T21:12:34Z</time>
      </trkpt>
      <trkpt lat="45.84884" lon="2.89435">
        <ele>812.497962</ele>
        <time>2022-03-05T21:13:16Z</time>
      </trkpt>
      <trkpt lat="45.84892" lon="2.89384">
        <ele>812.957297</ele>
        <time>2022-03-05T21:13:54Z</time>
      </trkpt>
      <trkpt lat="45.84878" lon="2.89359">
        <ele>813.231788</ele>
        <time>2022-03-05T21:14:17Z</time>
      </trkpt>
      <trkpt lat="45.84865" lon="2.89303">
        <ele>813.443597</ele>
        <time>2022-03-05T21:14:59Z</time>
      </trkpt>
      <trkpt lat="45.84861" lon="2.89269">
        <ele>812.89899</ele>
        <time>2022-03-05T21:15:23Z</time>
      </trkpt>
      <trkpt lat="45.84872" lon="2.89252">
        <ele>812.520402</ele>
        <time>2022-03-05T21:15:40Z</time>
      </trkpt>
      <trkpt lat="45.84883" lon="2.89193">
        <ele>811.539049</ele>
        <time>2022-03-05T21:16:25Z</time>
      </trkpt>
      <trkpt lat="45.84889" lon="2.891">
        <ele>810.0498</ele>
        <time>2022-03-05T21:17:34Z</time>
      </trkpt>
      <trkpt lat="45.84906" lon="2.89002">
        <ele>807.98333</ele>
        <time>2022-03-05T21:18:50Z</time>
      </trkpt>
      <trkpt lat="45.84798" lon="2.88838">
        <ele>803.056437</ele>
        <time>2022-03-05T21:21:38Z</time>
      </trkpt>
      <trkpt lat="45.84803" lon="2.88826">
        <ele>802.798232</ele>
        <time>2022-03-05T21:21:48Z</time>
      </trkpt>
      <trkpt lat="45.84792" lon="2.88746">
        <ele>801.293603</ele>
        <time>2022-03-05T21:22:47Z</time>
      </trkpt>
      <trkpt lat="45.84737" lon="2.88524">
        <ele>796.618757</ele>
        <time>2022-03-05T21:25:41Z</time>
      </trkpt>
      <trkpt lat="45.84733" lon="2.88506">
        <ele>796.206547</ele>
        <time>2022-03-05T21:25:55Z</time>
      </trkpt>
      <trkpt lat="45.84714" lon="2.88476">
        <ele>795.33931</ele>
        <time>2022-03-05T21:26:25Z</time>
      </trkpt>
      <trkpt lat="45.84651" lon="2.88288">
        <ele>791.339262</ele>
        <time>2022-03-05T21:29:00Z</time>
      </trkpt>
      <trkpt lat="45.84637" lon="2.88206">
        <ele>789.863373</ele>
        <time>2022-03-05T21:30:02Z</time>
      </trkpt>
      <trkpt lat="45.84637" lon="2.88092">
        <ele>788.13702</ele>
        <time>2022-03-05T21:31:24Z</time>
      </trkpt>
      <trkpt lat="45.84667" lon="2.87923">
        <ele>785.855013</ele>
        <time>2022-03-05T21:33:29Z</time>
      </trkpt>
      <trkpt lat="45.84678" lon="2.87801">
        <ele>783.65891</ele>
        <time>2022-03-05T21:35:00Z</time>
      </trkpt>
      <trkpt lat="45.84685" lon="2.87724">
        <ele>782.176088</ele>
        <time>2022-03-05T21:35:58Z</time>
      </trkpt>
      <trkpt lat="45.84688" lon="2.87613">
        <ele>780.293729</ele>
        <time>2022-03-05T21:37:19Z</time>
      </trkpt>
      <trkpt lat="45.84684" lon="2.87559">
        <ele>779.687597</ele>
        <time>2022-03-05T21:38:00Z</time>
      </trkpt>
      <trkpt lat="45.84689" lon="2.87352">
        <ele>777.460176</ele>
        <time>2022-03-05T21:40:28Z</time>
      </trkpt>
      <trkpt lat="45.84669" lon="2.87232">
        <ele>776.317347</ele>
        <time>2022-03-05T21:41:54Z</time>
      </trkpt>
      <trkpt lat="45.84634" lon="2.86971">
        <ele>771.000735</ele>
        <time>2022-03-05T21:45:09Z</time>
      </trkpt>
      <trkpt lat="45.84663" lon="2.86757">
        <ele>762.825422</ele>
        <time>2022-03-05T21:47:59Z</time>
      </trkpt>
      <trkpt lat="45.84666" lon="2.86696">
        <ele>759.999413</ele>
        <time>2022-03-05T21:48:48Z</time>
      </trkpt>
      <trkpt lat="45.8472" lon="2.8661">
        <ele>754.629692</ele>
        <time>2022-03-05T21:50:20Z</time>
      </trkpt>
      <trkpt lat="45.84675" lon="2.86519">
        <ele>749.475123</ele>
        <time>2022-03-05T21:51:49Z</time>
      </trkpt>
      <trkpt lat="45.84626" lon="2.86441">
        <ele>744.606888</ele>
        <time>2022-03-05T21:53:12Z</time>
      </trkpt>
      <trkpt lat="45.846" lon="2.86396">
        <ele>743.286784</ele>
        <time>2022-03-05T21:53:57Z</time>
      </trkpt>
      <trkpt lat="45.84595" lon="2.86381">
        <ele>742.915812</ele>
        <time>2022-03-05T21:54:10Z</time>
      </trkpt>
      <trkpt lat="45.84588" lon="2.86363">
        <ele>742.467766</ele>
        <time>2022-03-05T21:54:25Z</time>
      </trkpt>
      <trkpt lat="45.84533" lon="2.86361">
        <ele>740.666798</ele>
        <time>2022-03-05T21:55:24Z</time>
      </trkpt>
      <trkpt lat="45.84506" lon="2.86355">
        <ele>739.779122</ele>
        <time>2022-03-05T21:55:53Z</time>
      </trkpt>
      <trkpt lat="45.84472" lon="2.86301">
        <ele>738.877518</ele>
        <time>2022-03-05T21:56:44Z</time>
      </trkpt>
      <trkpt lat="45.8443" lon="2.86273">
        <ele>739.072867</ele>
        <time>2022-03-05T21:57:32Z</time>
      </trkpt>
      <trkpt lat="45.84367" lon="2.86257">
        <ele>739.343244</ele>
        <time>2022-03-05T21:58:39Z</time>
      </trkpt>
      <trkpt lat="45.84299" lon="2.86218">
        <ele>739.732717</ele>
        <time>2022-03-05T21:59:53Z</time>
      </trkpt>
      <trkpt lat="45.84274" lon="2.86209">
        <ele>739.934095</ele>
        <time>2022-03-05T22:00:19Z</time>
      </trkpt>
      <trkpt lat="45.84144" lon="2.86188">
        <ele>740.943839</ele>
        <time>2022-03-05T22:02:33Z</time>
      </trkpt>
      <trkpt lat="45.84102" lon="2.86203">
        <ele>741.982819</ele>
        <time>2022-03-05T22:03:19Z</time>
      </trkpt>
      <trkpt lat="45.84086" lon="2.86221">
        <ele>742.454521</ele>
        <time>2022-03-05T22:03:40Z</time>
      </trkpt>
      <trkpt lat="45.84068" lon="2.86253">
        <ele>743.133187</ele>
        <time>2022-03-05T22:04:12Z</time>
      </trkpt>
      <trkpt lat="45.84053" lon="2.86306">
        <ele>744.078642</ele>
        <time>2022-03-05T22:04:56Z</time>
      </trkpt>
      <trkpt lat="45.8404" lon="2.86323">
        <ele>744.50333</ele>
        <time>2022-03-05T22:05:16Z</time>
      </trkpt>
      <trkpt lat="45.8398" lon="2.8634">
        <ele>745.852781</ele>
        <time>2022-03-05T22:06:24Z</time>
      </trkpt>
      <trkpt lat="45.83967" lon="2.86324">
        <ele>746.205258</ele>
        <time>2022-03-05T22:06:43Z</time>
      </trkpt>
      <trkpt lat="45.83948" lon="2.86302">
        <ele>746.708528</ele>
        <time>2022-03-05T22:07:09Z</time>
      </trkpt>
      <trkpt lat="45.83937" lon="2.86302">
        <ele>746.925863</ele>
        <time>2022-03-05T22:07:21Z</time>
      </trkpt>
      <trkpt lat="45.8389" lon="2.8635">
        <ele>748.108732</ele>
        <time>2022-03-05T22:08:23Z</time>
      </trkpt>
      <trkpt lat="45.83867" lon="2.86351">
        <ele>748.588508</ele>
        <time>2022-03-05T22:08:48Z</time>
      </trkpt>
      <trkpt lat="45.83791" lon="2.86401">
        <ele>747.421491</ele>
        <time>2022-03-05T22:10:12Z</time>
      </trkpt>
      <trkpt lat="45.83735" lon="2.86469">
        <ele>745.840926</ele>
        <time>2022-03-05T22:11:29Z</time>
      </trkpt>
      <trkpt lat="45.83697" lon="2.86495">
        <ele>744.775452</ele>
        <time>2022-03-05T22:12:16Z</time>
      </trkpt>
      <trkpt lat="45.83672" lon="2.8648">
        <ele>742.944162</ele>
        <time>2022-03-05T22:12:47Z</time>
      </trkpt>
      <trkpt lat="45.83649" lon="2.86485">
        <ele>741.438974</ele>
        <time>2022-03-05T22:13:12Z</time>
      </trkpt>
      <trkpt lat="45.8363" lon="2.86499">
        <ele>740.010098</ele>
        <time>2022-03-05T22:13:37Z</time>
      </trkpt>
      <trkpt lat="45.83594" lon="2.86511">
        <ele>737.561558</ele>
        <time>2022-03-05T22:14:19Z</time>
      </trkpt>
      <trkpt lat="45.83566" lon="2.86501">
        <ele>735.635562</ele>
        <time>2022-03-05T22:14:53Z</time>
      </trkpt>
      <trkpt lat="45.83533" lon="2.86506">
        <ele>733.412207</ele>
        <time>2022-03-05T22:15:31Z</time>
      </trkpt>
      <trkpt lat="45.83498" lon="2.86478">
        <ele>731.670099</ele>
        <time>2022-03-05T22:16:16Z</time>
      </trkpt>
      <trkpt lat="45.83499" lon="2.86445">
        <ele>730.749961</ele>
        <time>2022-03-05T22:16:43Z</time>
      </trkpt>
      <trkpt lat="45.83492" lon="2.86474">
        <ele>729.903438</ele>
        <time>2022-03-05T22:17:06Z</time>
      </trkpt>
      <trkpt lat="45.83487" lon="2.86466">
        <ele>729.600652</ele>
        <time>2022-03-05T22:17:15Z</time>
      </trkpt>
      <trkpt lat="45.83476" lon="2.8638">
        <ele>727.217838</ele>
        <time>2022-03-05T22:18:18Z</time>
      </trkpt>
      <trkpt lat="45.83467" lon="2.86346">
        <ele>726.202224</ele>
        <time>2022-03-05T22:18:45Z</time>
      </trkpt>
      <trkpt lat="45.83459" lon="2.86334">
        <ele>725.919945</ele>
        <time>2022-03-05T22:18:57Z</time>
      </trkpt>
      <trkpt lat="45.83449" lon="2.86288">
        <ele>725.602291</ele>
        <time>2022-03-05T22:19:32Z</time>
      </trkpt>
      <trkpt lat="45.83386" lon="2.86125">
        <ele>724.389846</ele>
        <time>2022-03-05T22:21:44Z</time>
      </trkpt>
      <trkpt lat="45.83373" lon="2.86051">
        <ele>725.017496</ele>
        <time>2022-03-05T22:22:37Z</time>
      </trkpt>
      <trkpt lat="45.83324" lon="2.8606">
        <ele>725.879202</ele>
        <time>2022-03-05T22:23:28Z</time>
      </trkpt>
      <trkpt lat="45.83286" lon="2.86">
        <ele>726.867775</ele>
        <time>2022-03-05T22:24:30Z</time>
      </trkpt>
      <trkpt lat="45.83264" lon="2.86048">
        <ele>727.842506</ele>
        <time>2022-03-05T22:25:16Z</time>
      </trkpt>
      <trkpt lat="45.83222" lon="2.86083">
        <ele>730.316107</ele>
        <time>2022-03-05T22:26:13Z</time>
      </trkpt>
      <trkpt lat="45.83202" lon="2.8611">
        <ele>731.680248</ele>
        <time>2022-03-05T22:26:45Z</time>
      </trkpt>
      <trkpt lat="45.83159" lon="2.86135">
        <ele>734.050645</ele>
        <time>2022-03-05T22:27:41Z</time>
      </trkpt>
      <trkpt lat="45.83148" lon="2.86153">
        <ele>734.88289</ele>
        <time>2022-03-05T22:28:01Z</time>
      </trkpt>
      <trkpt lat="45.83096" lon="2.86248">
        <ele>738.6299</ele>
        <time>2022-03-05T22:29:41Z</time>
      </trkpt>
      <trkpt lat="45.83091" lon="2.8632">
        <ele>740.667987</ele>
        <time>2022-03-05T22:30:38Z</time>
      </trkpt>
      <trkpt lat="45.83067" lon="2.86345">
        <ele>741.856411</ele>
        <time>2022-03-05T22:31:11Z</time>
      </trkpt>
      <trkpt lat="45.83027" lon="2.86364">
        <ele>743.566909</ele>
        <time>2022-03-05T22:31:58Z</time>
      </trkpt>
      <trkpt lat="45.82992" lon="2.86406">
        <ele>744.738599</ele>
        <time>2022-03-05T22:32:49Z</time>
      </trkpt>
      <trkpt lat="45.82867" lon="2.8643">
        <ele>747.649498</ele>
        <time>2022-03-05T22:35:04Z</time>
      </trkpt>
      <trkpt lat="45.82838" lon="2.86484">
        <ele>748.284092</ele>
        <time>2022-03-05T22:35:55Z</time>
      </trkpt>
      <trkpt lat="45.82761" lon="2.86483">
        <ele>748.979333</ele>
        <time>2022-03-05T22:37:16Z</time>
      </trkpt>
      <trkpt lat="45.8267" lon="2.86632">
        <ele>750.004071</ele>
        <time>2022-03-05T22:39:35Z</time>
      </trkpt>
      <trkpt lat="45.82612" lon="2.86676">
        <ele>750.387527</ele>
        <time>2022-03-05T22:40:42Z</time>
      </trkpt>
      <trkpt lat="45.82577" lon="2.86671">
        <ele>750.596221</ele>
        <time>2022-03-05T22:41:18Z</time>
      </trkpt>
      <trkpt lat="45.82554" lon="2.86685">
        <ele>750.995388</ele>
        <time>2022-03-05T22:41:44Z</time>
      </trkpt>
      <trkpt lat="45.82532" lon="2.86691">
        <ele>751.498167</ele>
        <time>2022-03-05T22:42:07Z</time>
      </trkpt>
      <trkpt lat="45.82512" lon="2.86681">
        <ele>751.978142</ele>
        <time>2022-03-05T22:42:29Z</time>
      </trkpt>
      <trkpt lat="45.82459" lon="2.86577">
        <ele>754.031765</ele>
        <time>2022-03-05T22:44:05Z</time>
      </trkpt>
      <trkpt lat="45.82445" lon="2.86564">
        <ele>754.41505</ele>
        <time>2022-03-05T22:44:24Z</time>
      </trkpt>
      <trkpt lat="45.82393" lon="2.86552">
        <ele>756.653431</ele>
        <time>2022-03-05T22:45:26Z</time>
      </trkpt>
      <trkpt lat="45.82365" lon="2.86557">
        <ele>758.116744</ele>
        <time>2022-03-05T22:45:59Z</time>
      </trkpt>
      <trkpt lat="45.8232" lon="2.86589">
        <ele>760.675744</ele>
        <time>2022-03-05T22:46:59Z</time>
      </trkpt>
      <trkpt lat="45.82279" lon="2.86574">
        <ele>762.800558</ele>
        <time>2022-03-05T22:47:49Z</time>
      </trkpt>
      <trkpt lat="45.82244" lon="2.86574">
        <ele>764.451206</ele>
        <time>2022-03-05T22:48:31Z</time>
      </trkpt>
      <trkpt lat="45.82214" lon="2.86586">
        <ele>765.626998</ele>
        <time>2022-03-05T22:49:07Z</time>
      </trkpt>
      <trkpt lat="45.8219" lon="2.86588">
        <ele>766.563892</ele>
        <time>2022-03-05T22:49:36Z</time>
      </trkpt>
      <trkpt lat="45.82158" lon="2.86615">
        <ele>767.978965</ele>
        <time>2022-03-05T22:50:19Z</time>
      </trkpt>
      <trkpt lat="45.8215" lon="2.86638">
        <ele>768.672621</ele>
        <time>2022-03-05T22:50:39Z</time>
      </trkpt>
      <trkpt lat="45.82107" lon="2.86684">
        <ele>770.707842</ele>
        <time>2022-03-05T22:51:36Z</time>
      </trkpt>
      <trkpt lat="45.82084" lon="2.86689">
        <ele>771.235683</ele>
        <time>2022-03-05T22:52:02Z</time>
      </trkpt>
      <trkpt lat="45.82011" lon="2.86637">
        <ele>772.835464</ele>
        <time>2022-03-05T22:53:28Z</time>
      </trkpt>
      <trkpt lat="45.81963" lon="2.86609">
        <ele>773.851873</ele>
        <time>2022-03-05T22:54:24Z</time>
      </trkpt>
      <trkpt lat="45.81946" lon="2.86557">
        <ele>774.643639</ele>
        <time>2022-03-05T22:55:07Z</time>
      </trkpt>
      <trkpt lat="45.8192" lon="2.86498">
        <ele>775.605069</ele>
        <time>2022-03-05T22:55:59Z</time>
      </trkpt>
      <trkpt lat="45.81875" lon="2.86433">
        <ele>776.872698</ele>
        <time>2022-03-05T22:57:07Z</time>
      </trkpt>
      <trkpt lat="45.81836" lon="2.86431">
        <ele>777.660717</ele>
        <time>2022-03-05T22:57:50Z</time>
      </trkpt>
      <trkpt lat="45.81796" lon="2.86456">
        <ele>778.365666</ele>
        <time>2022-03-05T22:58:36Z</time>
      </trkpt>
      <trkpt lat="45.81775" lon="2.86484">
        <ele>778.779087</ele>
        <time>2022-03-05T22:59:06Z</time>
      </trkpt>
      <trkpt lat="45.81746" lon="2.86524">
        <ele>779.364582</ele>
        <time>2022-03-05T22:59:49Z</time>
      </trkpt>
      <trkpt lat="45.81718" lon="2.86523">
        <ele>779.763902</ele>
        <time>2022-03-05T23:00:18Z</time>
      </trkpt>
      <trkpt lat="45.81691" lon="2.86562">
        <ele>780.322227</ele>
        <time>2022-03-05T23:00:58Z</time>
      </trkpt>
      <trkpt lat="45.81669" lon="2.86559">
        <ele>780.618686</ele>
        <time>2022-03-05T23:01:21Z</time>
      </trkpt>
      <trkpt lat="45.81628" lon="2.86575">
        <ele>781.064327</ele>
        <time>2022-03-05T23:02:05Z</time>
      </trkpt>
      <trkpt lat="45.81576" lon="2.86561">
        <ele>781.629043</ele>
        <time>2022-03-05T23:02:59Z</time>
      </trkpt>
      <trkpt lat="45.81516" lon="2.86525">
        <ele>782.315683</ele>
        <time>2022-03-05T23:04:07Z</time>
      </trkpt>
      <trkpt lat="45.81523" lon="2.86547">
        <ele>782.517454</ele>
        <time>2022-03-05T23:04:25Z</time>
      </trkpt>
      <trkpt lat="45.81532" lon="2.86632">
        <ele>783.447224</ele>
        <time>2022-03-05T23:05:28Z</time>
      </trkpt>
      <trkpt lat="45.81532" lon="2.86638">
        <ele>783.514248</ele>
        <time>2022-03-05T23:05:32Z</time>
      </trkpt>
      <trkpt lat="45.8155" lon="2.86696">
        <ele>784.211961</ele>
        <time>2022-03-05T23:06:20Z</time>
      </trkpt>
      <trkpt lat="45.8154" lon="2.86832">
        <ele>785.429365</ele>
        <time>2022-03-05T23:08:00Z</time>
      </trkpt>
      <trkpt lat="45.81522" lon="2.86837">
        <ele>785.544446</ele>
        <time>2022-03-05T23:08:20Z</time>
      </trkpt>
      <trkpt lat="45.81468" lon="2.86869">
        <ele>785.901865</ele>
        <time>2022-03-05T23:09:20Z</time>
      </trkpt>
      <trkpt lat="45.81452" lon="2.86873">
        <ele>786.001199</ele>
        <time>2022-03-05T23:09:36Z</time>
      </trkpt>
      <trkpt lat="45.81428" lon="2.86836">
        <ele>786.219167</ele>
        <time>2022-03-05T23:10:12Z</time>
      </trkpt>
      <trkpt lat="45.81407" lon="2.8683">
        <ele>786.348535</ele>
        <time>2022-03-05T23:10:33Z</time>
      </trkpt>
      <trkpt lat="45.81371" lon="2.86846">
        <ele>786.136636</ele>
        <time>2022-03-05T23:11:10Z</time>
      </trkpt>
      <trkpt lat="45.81337" lon="2.86851">
        <ele>785.911454</ele>
        <time>2022-03-05T23:11:46Z</time>
      </trkpt>
      <trkpt lat="45.81289" lon="2.86837">
        <ele>785.600075</ele>
        <time>2022-03-05T23:12:35Z</time>
      </trkpt>
      <trkpt lat="45.8128" lon="2.86825">
        <ele>785.517785</ele>
        <time>2022-03-05T23:12:48Z</time>
      </trkpt>
      <trkpt lat="45.81236" lon="2.86795">
        <ele>785.203662</ele>
        <time>2022-03-05T23:13:38Z</time>
      </trkpt>
      <trkpt lat="45.81192" lon="2.86793">
        <ele>784.705573</ele>
        <time>2022-03-05T23:14:22Z</time>
      </trkpt>
      <trkpt lat="45.81176" lon="2.86765">
        <ele>784.425402</ele>
        <time>2022-03-05T23:14:47Z</time>
      </trkpt>
      <trkpt lat="45.8117" lon="2.86693">
        <ele>783.851039</ele>
        <time>2022-03-05T23:15:39Z</time>
      </trkpt>
      <trkpt lat="45.81139" lon="2.86643">
        <ele>783.323922</ele>
        <time>2022-03-05T23:16:27Z</time>
      </trkpt>
      <trkpt lat="45.81129" lon="2.86598">
        <ele>782.813948</ele>
        <time>2022-03-05T23:17:01Z</time>
      </trkpt>
      <trkpt lat="45.81106" lon="2.86568">
        <ele>782.237967</ele>
        <time>2022-03-05T23:17:34Z</time>
      </trkpt>
      <trkpt lat="45.81106" lon="2.86524">
        <ele>781.669357</ele>
        <time>2022-03-05T23:18:06Z</time>
      </trkpt>
      <trkpt lat="45.81082" lon="2.86485">
        <ele>781.008281</ele>
        <time>2022-03-05T23:18:44Z</time>
      </trkpt>
      <trkpt lat="45.80992" lon="2.86379">
        <ele>779.270464</ele>
        <time>2022-03-05T23:20:45Z</time>
      </trkpt>
      <trkpt lat="45.80976" lon="2.86318">
        <ele>778.781765</ele>
        <time>2022-03-05T23:21:31Z</time>
      </trkpt>
      <trkpt lat="45.80943" lon="2.86304">
        <ele>778.404973</ele>
        <time>2022-03-05T23:22:06Z</time>
      </trkpt>
      <trkpt lat="45.80845" lon="2.86303">
        <ele>777.719666</ele>
        <time>2022-03-05T23:23:46Z</time>
      </trkpt>
      <trkpt lat="45.80834" lon="2.86284">
        <ele>777.66134</ele>
        <time>2022-03-05T23:24:02Z</time>
      </trkpt>
      <trkpt lat="45.80819" lon="2.8622">
        <ele>777.492684</ele>
        <time>2022-03-05T23:24:49Z</time>
      </trkpt>
      <trkpt lat="45.80803" lon="2.86206">
        <ele>777.425018</ele>
        <time>2022-03-05T23:25:08Z</time>
      </trkpt>
      <trkpt lat="45.80796" lon="2.86191">
        <ele>777.380416</ele>
        <time>2022-03-05T23:25:21Z</time>
      </trkpt>
      <trkpt lat="45.80792" lon="2.86143">
        <ele>777.256563</ele>
        <time>2022-03-05T23:25:55Z</time>
      </trkpt>
      <trkpt lat="45.80783" lon="2.86112">
        <ele>776.995923</ele>
        <time>2022-03-05T23:26:19Z</time>
      </trkpt>
      <trkpt lat="45.80758" lon="2.86065">
        <ele>776.538493</ele>
        <time>2022-03-05T23:27:01Z</time>
      </trkpt>
      <trkpt lat="45.80734" lon="2.86003">
        <ele>775.991402</ele>
        <time>2022-03-05T23:27:51Z</time>
      </trkpt>
      <trkpt lat="45.80718" lon="2.85985">
        <ele>775.765105</ele>
        <time>2022-03-05T23:28:12Z</time>
      </trkpt>
      <trkpt lat="45.80693" lon="2.85945">
        <ele>775.354839</ele>
        <time>2022-03-05T23:28:50Z</time>
      </trkpt>
      <trkpt lat="45.80675" lon="2.85889">
        <ele>774.105195</ele>
        <time>2022-03-05T23:29:36Z</time>
      </trkpt>
      <trkpt lat="45.80686" lon="2.85873">
        <ele>773.611532</ele>
        <time>2022-03-05T23:29:52Z</time>
      </trkpt>
      <trkpt lat="45.8068" lon="2.8584">
        <ele>772.846738</ele>
        <time>2022-03-05T23:30:17Z</time>
      </trkpt>
      <trkpt lat="45.80665" lon="2.85801">
        <ele>771.838023</ele>
        <time>2022-03-05T23:30:51Z</time>
      </trkpt>
      <trkpt lat="45.80651" lon="2.85779">
        <ele>771.166149</ele>
        <time>2022-03-05T23:31:14Z</time>
      </trkpt>
      <trkpt lat="45.80626" lon="2.85764">
        <ele>770.308311</ele>
        <time>2022-03-05T23:31:42Z</time>
      </trkpt>
      <trkpt lat="45.80601" lon="2.85758">
        <ele>769.48131</ele>
        <time>2022-03-05T23:32:10Z</time>
      </trkpt>
      <trkpt lat="45.8059" lon="2.85673">
        <ele>766.835196</ele>
        <time>2022-03-05T23:33:16Z</time>
      </trkpt>
      <trkpt lat="45.8058" lon="2.85506">
        <ele>761.690423</ele>
        <time>2022-03-05T23:35:25Z</time>
      </trkpt>
      <trkpt lat="45.80565" lon="2.85465">
        <ele>760.567781</ele>
        <time>2022-03-05T23:35:59Z</time>
      </trkpt>
      <trkpt lat="45.80547" lon="2.85444">
        <ele>759.773464</ele>
        <time>2022-03-05T23:36:23Z</time>
      </trkpt>
      <trkpt lat="45.80522" lon="2.85424">
        <ele>758.792376</ele>
        <time>2022-03-05T23:36:54Z</time>
      </trkpt>
      <trkpt lat="45.80526" lon="2.85368">
        <ele>757.439004</ele>
        <time>2022-03-05T23:37:35Z</time>
      </trkpt>
      <trkpt lat="45.8053" lon="2.85213">
        <ele>751.988206</ele>
        <time>2022-03-05T23:39:32Z</time>
      </trkpt>
      <trkpt lat="45.8053" lon="2.85187">
        <ele>750.689624</ele>
        <time>2022-03-05T23:39:52Z</time>
      </trkpt>
      <trkpt lat="45.80515" lon="2.85131">
        <ele>747.802539</ele>
        <time>2022-03-05T23:40:38Z</time>
      </trkpt>
      <trkpt lat="45.80491" lon="2.84779">
        <ele>723.714396</ele>
        <time>2022-03-05T23:45:37Z</time>
      </trkpt>
      <trkpt lat="45.80482" lon="2.84755">
        <ele>721.676094</ele>
        <time>2022-03-05T23:46:00Z</time>
      </trkpt>
      <trkpt lat="45.80449" lon="2.8474">
        <ele>717.929979</ele>
        <time>2022-03-05T23:46:43Z</time>
      </trkpt>
      <trkpt lat="45.80387" lon="2.84742">
        <ele>711.269313</ele>
        <time>2022-03-05T23:47:59Z</time>
      </trkpt>
      <trkpt lat="45.80378" lon="2.84734">
        <ele>710.149041</ele>
        <time>2022-03-05T23:48:11Z</time>
      </trkpt>
      <trkpt lat="45.80372" lon="2.84717">
        <ele>708.750173</ele>
        <time>2022-03-05T23:48:27Z</time>
      </trkpt>
      <trkpt lat="45.80372" lon="2.84696">
        <ele>707.192682</ele>
        <time>2022-03-05T23:48:45Z</time>
      </trkpt>
      <trkpt lat="45.80379" lon="2.8468">
        <ele>705.841552</ele>
        <time>2022-03-05T23:49:00Z</time>
      </trkpt>
      <trkpt lat="45.80391" lon="2.84665">
        <ele>704.063073</ele>
        <time>2022-03-05T23:49:20Z</time>
      </trkpt>
      <trkpt lat="45.80406" lon="2.84656">
        <ele>702.839385</ele>
        <time>2022-03-05T23:49:39Z</time>
      </trkpt>
      <trkpt lat="45.8042" lon="2.84634">
        <ele>701.256824</ele>
        <time>2022-03-05T23:50:04Z</time>
      </trkpt>
      <trkpt lat="45.80536" lon="2.84541">
        <ele>691.275728</ele>
        <time>2022-03-05T23:52:35Z</time>
      </trkpt>
      <trkpt lat="45.80543" lon="2.8452">
        <ele>690.212933</ele>
        <time>2022-03-05T23:52:53Z</time>
      </trkpt>
      <trkpt lat="45.80538" lon="2.84496">
        <ele>689.344383</ele>
        <time>2022-03-05T23:53:13Z</time>
      </trkpt>
      <trkpt lat="45.80488" lon="2.84529">
        <ele>686.630806</ele>
        <time>2022-03-05T23:54:14Z</time>
      </trkpt>
      <trkpt lat="45.80441" lon="2.84542">
        <ele>684.283956</ele>
        <time>2022-03-05T23:55:08Z</time>
      </trkpt>
      <trkpt lat="45.80365" lon="2.84577">
        <ele>681.455175</ele>
        <time>2022-03-05T23:56:33Z</time>
      </trkpt>
      <trkpt lat="45.80276" lon="2.84298">
        <ele>683.569932</ele>
        <time>2022-03-06T00:00:08Z</time>
      </trkpt>
      <trkpt lat="45.80258" lon="2.84292">
        <ele>684.551595</ele>
        <time>2022-03-06T00:00:30Z</time>
      </trkpt>
      <trkpt lat="45.80199" lon="2.84231">
        <ele>688.378895</ele>
        <time>2022-03-06T00:02:01Z</time>
      </trkpt>
      <trkpt lat="45.80133" lon="2.84256">
        <ele>693.743193</ele>
        <time>2022-03-06T00:03:32Z</time>
      </trkpt>
      <trkpt lat="45.80069" lon="2.84255">
        <ele>699.941515</ele>
        <time>2022-03-06T00:05:02Z</time>
      </trkpt>
      <trkpt lat="45.79971" lon="2.84284">
        <ele>708.980368</ele>
        <time>2022-03-06T00:07:11Z</time>
      </trkpt>
      <trkpt lat="45.79955" lon="2.84284">
        <ele>710.126491</ele>
        <time>2022-03-06T00:07:33Z</time>
      </trkpt>
      <trkpt lat="45.79915" lon="2.84309">
        <ele>713.137607</ele>
        <time>2022-03-06T00:08:26Z</time>
      </trkpt>
      <trkpt lat="45.79905" lon="2.84309">
        <ele>713.839566</ele>
        <time>2022-03-06T00:08:38Z</time>
      </trkpt>
      <trkpt lat="45.79893" lon="2.84301">
        <ele>714.80044</ele>
        <time>2022-03-06T00:08:55Z</time>
      </trkpt>
      <trkpt lat="45.79882" lon="2.84281">
        <ele>716.005947</ele>
        <time>2022-03-06T00:09:17Z</time>
      </trkpt>
      <trkpt lat="45.79901" lon="2.84266">
        <ele>717.542348</ele>
        <time>2022-03-06T00:09:45Z</time>
      </trkpt>
      <trkpt lat="45.79902" lon="2.84265">
        <ele>717.596665</ele>
        <time>2022-03-06T00:09:46Z</time>
      </trkpt>
      <trkpt lat="45.7992" lon="2.84256">
        <ele>718.945277</ele>
        <time>2022-03-06T00:10:09Z</time>
      </trkpt>
      <trkpt lat="45.79968" lon="2.84227">
        <ele>721.581882</ele>
        <time>2022-03-06T00:11:10Z</time>
      </trkpt>
      <trkpt lat="45.80001" lon="2.84204">
        <ele>723.263568</ele>
        <time>2022-03-06T00:11:53Z</time>
      </trkpt>
      <trkpt lat="45.80018" lon="2.84173">
        <ele>724.519904</ele>
        <time>2022-03-06T00:12:26Z</time>
      </trkpt>
      <trkpt lat="45.80026" lon="2.84157">
        <ele>725.136235</ele>
        <time>2022-03-06T00:12:42Z</time>
      </trkpt>
      <trkpt lat="45.80058" lon="2.84149">
        <ele>726.588648</ele>
        <time>2022-03-06T00:13:18Z</time>
      </trkpt>
      <trkpt lat="45.80084" lon="2.84142">
        <ele>727.779759</ele>
        <time>2022-03-06T00:13:47Z</time>
      </trkpt>
      <trkpt lat="45.80094" lon="2.84142">
        <ele>727.914535</ele>
        <time>2022-03-06T00:13:58Z</time>
      </trkpt>
      <trkpt lat="45.80106" lon="2.84139">
        <ele>727.8029</ele>
        <time>2022-03-06T00:14:13Z</time>
      </trkpt>
      <trkpt lat="45.80109" lon="2.84133">
        <ele>727.760461</ele>
        <time>2022-03-06T00:14:18Z</time>
      </trkpt>
      <trkpt lat="45.80107" lon="2.84088">
        <ele>727.48353</ele>
        <time>2022-03-06T00:14:52Z</time>
      </trkpt>
      <trkpt lat="45.80105" lon="2.8408">
        <ele>727.430661</ele>
        <time>2022-03-06T00:14:59Z</time>
      </trkpt>
      <trkpt lat="45.801" lon="2.84069">
        <ele>727.35249</ele>
        <time>2022-03-06T00:15:08Z</time>
      </trkpt>
      <trkpt lat="45.80093" lon="2.84065">
        <ele>727.281457</ele>
        <time>2022-03-06T00:15:16Z</time>
      </trkpt>
      <trkpt lat="45.8004" lon="2.84065">
        <ele>726.817682</ele>
        <time>2022-03-06T00:16:10Z</time>
      </trkpt>
      <trkpt lat="45.80025" lon="2.84058">
        <ele>726.683621</ele>
        <time>2022-03-06T00:16:26Z</time>
      </trkpt>
      <trkpt lat="45.80021" lon="2.84059">
        <ele>726.642096</ele>
        <time>2022-03-06T00:16:31Z</time>
      </trkpt>
      <trkpt lat="45.79941" lon="2.84068">
        <ele>721.767137</ele>
        <time>2022-03-06T00:18:03Z</time>
      </trkpt>
      <trkpt lat="45.79936" lon="2.84075">
        <ele>721.136263</ele>
        <time>2022-03-06T00:18:11Z</time>
      </trkpt>
      <trkpt lat="45.79929" lon="2.84158">
        <ele>715.879622</ele>
        <time>2022-03-06T00:19:17Z</time>
      </trkpt>
      <trkpt lat="45.79913" lon="2.84147">
        <ele>714.320866</ele>
        <time>2022-03-06T00:19:39Z</time>
      </trkpt>
      <trkpt lat="45.799" lon="2.84117">
        <ele>712.105186</ele>
        <time>2022-03-06T00:20:08Z</time>
      </trkpt>
      <trkpt lat="45.79897" lon="2.84097">
        <ele>710.815539</ele>
        <time>2022-03-06T00:20:27Z</time>
      </trkpt>
      <trkpt lat="45.79903" lon="2.84038">
        <ele>706.840654</ele>
        <time>2022-03-06T00:21:20Z</time>
      </trkpt>
      <trkpt lat="45.79892" lon="2.83982">
        <ele>702.934369</ele>
        <time>2022-03-06T00:22:11Z</time>
      </trkpt>
      <trkpt lat="45.79878" lon="2.83971">
        <ele>701.40474</ele>
        <time>2022-03-06T00:22:31Z</time>
      </trkpt>
      <trkpt lat="45.79867" lon="2.83973">
        <ele>700.337087</ele>
        <time>2022-03-06T00:22:45Z</time>
      </trkpt>
      <trkpt lat="45.79838" lon="2.83992">
        <ele>697.274425</ele>
        <time>2022-03-06T00:23:20Z</time>
      </trkpt>
      <trkpt lat="45.79836" lon="2.83996">
        <ele>696.915759</ele>
        <time>2022-03-06T00:23:24Z</time>
      </trkpt>
      <trkpt lat="45.79831" lon="2.83991">
        <ele>696.31039</ele>
        <time>2022-03-06T00:23:31Z</time>
      </trkpt>
      <trkpt lat="45.79826" lon="2.83967">
        <ele>694.643481</ele>
        <time>2022-03-06T00:23:50Z</time>
      </trkpt>
      <trkpt lat="45.79817" lon="2.83982">
        <ele>693.284806</ele>
        <time>2022-03-06T00:24:05Z</time>
      </trkpt>
      <trkpt lat="45.79791" lon="2.83982">
        <ele>692.849814</ele>
        <time>2022-03-06T00:24:33Z</time>
      </trkpt>
      <trkpt lat="45.79775" lon="2.83975">
        <ele>692.964495</ele>
        <time>2022-03-06T00:24:52Z</time>
      </trkpt>
      <trkpt lat="45.79737" lon="2.8394">
        <ele>693.274326</ele>
        <time>2022-03-06T00:25:41Z</time>
      </trkpt>
      <trkpt lat="45.79729" lon="2.83939">
        <ele>693.334063</ele>
        <time>2022-03-06T00:25:51Z</time>
      </trkpt>
      <trkpt lat="45.79725" lon="2.83924">
        <ele>693.411793</ele>
        <time>2022-03-06T00:26:03Z</time>
      </trkpt>
      <trkpt lat="45.79704" lon="2.83899">
        <ele>693.598058</ele>
        <time>2022-03-06T00:26:34Z</time>
      </trkpt>
      <trkpt lat="45.79625" lon="2.83848">
        <ele>696.195615</ele>
        <time>2022-03-06T00:28:22Z</time>
      </trkpt>
      <trkpt lat="45.79563" lon="2.83833">
        <ele>700.171515</ele>
        <time>2022-03-06T00:29:39Z</time>
      </trkpt>
      <trkpt lat="45.79617" lon="2.83858">
        <ele>703.771138</ele>
        <time>2022-03-06T00:30:48Z</time>
      </trkpt>
      <trkpt lat="45.79658" lon="2.83893">
        <ele>706.514793</ele>
        <time>2022-03-06T00:31:44Z</time>
      </trkpt>
      <trkpt lat="45.79683" lon="2.83933">
        <ele>708.528812</ele>
        <time>2022-03-06T00:32:30Z</time>
      </trkpt>
      <trkpt lat="45.79683" lon="2.83956">
        <ele>709.349308</ele>
        <time>2022-03-06T00:32:49Z</time>
      </trkpt>
      <trkpt lat="45.79678" lon="2.83961">
        <ele>709.664111</ele>
        <time>2022-03-06T00:32:57Z</time>
      </trkpt>
      <trkpt lat="45.79664" lon="2.83962">
        <ele>710.425972</ele>
        <time>2022-03-06T00:33:14Z</time>
      </trkpt>
      <trkpt lat="45.79632" lon="2.83937">
        <ele>712.378497</ele>
        <time>2022-03-06T00:33:57Z</time>
      </trkpt>
      <trkpt lat="45.79526" lon="2.83927">
        <ele>717.236378</ele>
        <time>2022-03-06T00:35:58Z</time>
      </trkpt>
      <trkpt lat="45.79472" lon="2.8391">
        <ele>719.459165</ele>
        <time>2022-03-06T00:37:03Z</time>
      </trkpt>
      <trkpt lat="45.79456" lon="2.83913">
        <ele>720.100925</ele>
        <time>2022-03-06T00:37:21Z</time>
      </trkpt>
      <trkpt lat="45.79409" lon="2.83946">
        <ele>722.155884</ele>
        <time>2022-03-06T00:38:20Z</time>
      </trkpt>
      <trkpt lat="45.79352" lon="2.83965">
        <ele>723.75959</ele>
        <time>2022-03-06T00:39:23Z</time>
      </trkpt>
      <trkpt lat="45.79318" lon="2.83968">
        <ele>724.699668</ele>
        <time>2022-03-06T00:40:01Z</time>
      </trkpt>
      <trkpt lat="45.79254" lon="2.83995">
        <ele>726.532326</ele>
        <time>2022-03-06T00:41:15Z</time>
      </trkpt>
      <trkpt lat="45.79213" lon="2.83993">
        <ele>727.731481</ele>
        <time>2022-03-06T00:41:59Z</time>
      </trkpt>
      <trkpt lat="45.79196" lon="2.84008">
        <ele>728.342009</ele>
        <time>2022-03-06T00:42:20Z</time>
      </trkpt>
      <trkpt lat="45.79181" lon="2.84049">
        <ele>729.329359</ele>
        <time>2022-03-06T00:42:56Z</time>
      </trkpt>
      <trkpt lat="45.79143" lon="2.84067">
        <ele>730.548222</ele>
        <time>2022-03-06T00:43:40Z</time>
      </trkpt>
      <trkpt lat="45.7913" lon="2.84067">
        <ele>730.948809</ele>
        <time>2022-03-06T00:43:54Z</time>
      </trkpt>
      <trkpt lat="45.79059" lon="2.84051">
        <ele>733.195166</ele>
        <time>2022-03-06T00:45:15Z</time>
      </trkpt>
      <trkpt lat="45.79039" lon="2.84051">
        <ele>733.899702</ele>
        <time>2022-03-06T00:45:40Z</time>
      </trkpt>
      <trkpt lat="45.7901" lon="2.84064">
        <ele>734.921422</ele>
        <time>2022-03-06T00:46:15Z</time>
      </trkpt>
      <trkpt lat="45.78968" lon="2.84103">
        <ele>736.604588</ele>
        <time>2022-03-06T00:47:12Z</time>
      </trkpt>
      <trkpt lat="45.78893" lon="2.84156">
        <ele>737.925943</ele>
        <time>2022-03-06T00:48:42Z</time>
      </trkpt>
      <trkpt lat="45.78924" lon="2.84195">
        <ele>736.949009</ele>
        <time>2022-03-06T00:49:25Z</time>
      </trkpt>
      <trkpt lat="45.78973" lon="2.84201">
        <ele>735.780759</ele>
        <time>2022-03-06T00:50:18Z</time>
      </trkpt>
      <trkpt lat="45.79011" lon="2.84222">
        <ele>734.804295</ele>
        <time>2022-03-06T00:51:02Z</time>
      </trkpt>
      <trkpt lat="45.79021" lon="2.84264">
        <ele>733.894291</ele>
        <time>2022-03-06T00:51:37Z</time>
      </trkpt>
      <trkpt lat="45.79014" lon="2.84287">
        <ele>733.101564</ele>
        <time>2022-03-06T00:51:56Z</time>
      </trkpt>
      <trkpt lat="45.79014" lon="2.84305">
        <ele>732.500399</ele>
        <time>2022-03-06T00:52:11Z</time>
      </trkpt>
      <trkpt lat="45.79027" lon="2.843">
        <ele>731.87129</ele>
        <time>2022-03-06T00:52:27Z</time>
      </trkpt>
      <trkpt lat="45.79008" lon="2.84334">
        <ele>730.444128</ele>
        <time>2022-03-06T00:53:03Z</time>
      </trkpt>
      <trkpt lat="45.78983" lon="2.84364">
        <ele>728.984907</ele>
        <time>2022-03-06T00:53:39Z</time>
      </trkpt>
      <trkpt lat="45.78921" lon="2.84413">
        <ele>726.173016</ele>
        <time>2022-03-06T00:54:54Z</time>
      </trkpt>
      <trkpt lat="45.78876" lon="2.84495">
        <ele>727.470638</ele>
        <time>2022-03-06T00:56:10Z</time>
      </trkpt>
      <trkpt lat="45.78863" lon="2.84516">
        <ele>727.822257</ele>
        <time>2022-03-06T00:56:31Z</time>
      </trkpt>
      <trkpt lat="45.78849" lon="2.84555">
        <ele>728.374259</ele>
        <time>2022-03-06T00:57:05Z</time>
      </trkpt>
      <trkpt lat="45.78817" lon="2.84692">
        <ele>731.647918</ele>
        <time>2022-03-06T00:58:59Z</time>
      </trkpt>
      <trkpt lat="45.78818" lon="2.84723">
        <ele>732.68052</ele>
        <time>2022-03-06T00:59:25Z</time>
      </trkpt>
      <trkpt lat="45.78824" lon="2.84739">
        <ele>733.26322</ele>
        <time>2022-03-06T00:59:40Z</time>
      </trkpt>
      <trkpt lat="45.78847" lon="2.84764">
        <ele>734.622081</ele>
        <time>2022-03-06T01:00:14Z</time>
      </trkpt>
      <trkpt lat="45.78885" lon="2.84846">
        <ele>737.838354</ele>
        <time>2022-03-06T01:01:35Z</time>
      </trkpt>
      <trkpt lat="45.78934" lon="2.84916">
        <ele>740.26246</ele>
        <time>2022-03-06T01:02:56Z</time>
      </trkpt>
      <trkpt lat="45.78966" lon="2.84987">
        <ele>742.305082</ele>
        <time>2022-03-06T01:04:02Z</time>
      </trkpt>
      <trkpt lat="45.79004" lon="2.85048">
        <ele>743.970644</ele>
        <time>2022-03-06T01:05:04Z</time>
      </trkpt>
      <trkpt lat="45.79021" lon="2.85095">
        <ele>743.78873</ele>
        <time>2022-03-06T01:05:42Z</time>
      </trkpt>
      <trkpt lat="45.79037" lon="2.85117">
        <ele>743.677071</ele>
        <time>2022-03-06T01:06:04Z</time>
      </trkpt>
      <trkpt lat="45.79088" lon="2.85162">
        <ele>743.378614</ele>
        <time>2022-03-06T01:07:06Z</time>
      </trkpt>
      <trkpt lat="45.79103" lon="2.85183">
        <ele>743.273312</ele>
        <time>2022-03-06T01:07:28Z</time>
      </trkpt>
      <trkpt lat="45.79145" lon="2.85285">
        <ele>741.89083</ele>
        <time>2022-03-06T01:08:53Z</time>
      </trkpt>
      <trkpt lat="45.7917" lon="2.85349">
        <ele>740.633118</ele>
        <time>2022-03-06T01:09:47Z</time>
      </trkpt>
      <trkpt lat="45.7919" lon="2.85438">
        <ele>739.057264</ele>
        <time>2022-03-06T01:10:55Z</time>
      </trkpt>
      <trkpt lat="45.79189" lon="2.85454">
        <ele>738.783858</ele>
        <time>2022-03-06T01:11:07Z</time>
      </trkpt>
      <trkpt lat="45.79161" lon="2.85526">
        <ele>735.053114</ele>
        <time>2022-03-06T01:12:10Z</time>
      </trkpt>
      <trkpt lat="45.79145" lon="2.856">
        <ele>731.558916</ele>
        <time>2022-03-06T01:13:10Z</time>
      </trkpt>
      <trkpt lat="45.79144" lon="2.85652">
        <ele>729.168551</ele>
        <time>2022-03-06T01:13:53Z</time>
      </trkpt>
      <trkpt lat="45.7915" lon="2.85723">
        <ele>725.735903</ele>
        <time>2022-03-06T01:14:53Z</time>
      </trkpt>
      <trkpt lat="45.79176" lon="2.85858">
        <ele>718.519847</ele>
        <time>2022-03-06T01:16:47Z</time>
      </trkpt>
      <trkpt lat="45.7918" lon="2.85888">
        <ele>716.931625</ele>
        <time>2022-03-06T01:17:11Z</time>
      </trkpt>
      <trkpt lat="45.79178" lon="2.85898">
        <ele>716.369631</ele>
        <time>2022-03-06T01:17:20Z</time>
      </trkpt>
      <trkpt lat="45.79172" lon="2.85902">
        <ele>715.853763</ele>
        <time>2022-03-06T01:17:28Z</time>
      </trkpt>
      <trkpt lat="45.79142" lon="2.85897">
        <ele>713.618317</ele>
        <time>2022-03-06T01:18:01Z</time>
      </trkpt>
      <trkpt lat="45.7913" lon="2.85923">
        <ele>714.060996</ele>
        <time>2022-03-06T01:18:25Z</time>
      </trkpt>
      <trkpt lat="45.79107" lon="2.85984">
        <ele>715.051586</ele>
        <time>2022-03-06T01:19:15Z</time>
      </trkpt>
      <trkpt lat="45.79085" lon="2.86023">
        <ele>715.75975</ele>
        <time>2022-03-06T01:19:52Z</time>
      </trkpt>
      <trkpt lat="45.79082" lon="2.86024">
        <ele>715.826406</ele>
        <time>2022-03-06T01:19:56Z</time>
      </trkpt>
      <trkpt lat="45.79069" lon="2.86027">
        <ele>716.088984</ele>
        <time>2022-03-06T01:20:11Z</time>
      </trkpt>
      <trkpt lat="45.78998" lon="2.85997">
        <ele>718.627588</ele>
        <time>2022-03-06T01:21:45Z</time>
      </trkpt>
      <trkpt lat="45.78959" lon="2.86009">
        <ele>721.90525</ele>
        <time>2022-03-06T01:22:36Z</time>
      </trkpt>
      <trkpt lat="45.7895" lon="2.86012">
        <ele>722.734041</ele>
        <time>2022-03-06T01:22:49Z</time>
      </trkpt>
      <trkpt lat="45.78861" lon="2.86046">
        <ele>730.416105</ele>
        <time>2022-03-06T01:24:46Z</time>
      </trkpt>
      <trkpt lat="45.78817" lon="2.86051">
        <ele>733.71537</ele>
        <time>2022-03-06T01:25:45Z</time>
      </trkpt>
      <trkpt lat="45.78809" lon="2.86061">
        <ele>734.380003</ele>
        <time>2022-03-06T01:25:58Z</time>
      </trkpt>
      <trkpt lat="45.78808" lon="2.86072">
        <ele>734.872791</ele>
        <time>2022-03-06T01:26:08Z</time>
      </trkpt>
      <trkpt lat="45.78815" lon="2.86086">
        <ele>735.607788</ele>
        <time>2022-03-06T01:26:24Z</time>
      </trkpt>
      <trkpt lat="45.78836" lon="2.86101">
        <ele>737.087675</ele>
        <time>2022-03-06T01:26:54Z</time>
      </trkpt>
      <trkpt lat="45.7884" lon="2.86113">
        <ele>737.666711</ele>
        <time>2022-03-06T01:27:06Z</time>
      </trkpt>
      <trkpt lat="45.78837" lon="2.86124">
        <ele>738.183647</ele>
        <time>2022-03-06T01:27:17Z</time>
      </trkpt>
      <trkpt lat="45.78824" lon="2.86132">
        <ele>739.043459</ele>
        <time>2022-03-06T01:27:32Z</time>
      </trkpt>
      <trkpt lat="45.78781" lon="2.86132">
        <ele>741.726299</ele>
        <time>2022-03-06T01:28:21Z</time>
      </trkpt>
      <trkpt lat="45.78762" lon="2.86138">
        <ele>742.975096</ele>
        <time>2022-03-06T01:28:44Z</time>
      </trkpt>
      <trkpt lat="45.78739" lon="2.86149">
        <ele>744.058483</ele>
        <time>2022-03-06T01:29:10Z</time>
      </trkpt>
      <trkpt lat="45.78701" lon="2.86154">
        <ele>745.206921</ele>
        <time>2022-03-06T01:29:53Z</time>
      </trkpt>
      <trkpt lat="45.78628" lon="2.8609">
        <ele>747.755306</ele>
        <time>2022-03-06T01:31:30Z</time>
      </trkpt>
      <trkpt lat="45.78604" lon="2.86084">
        <ele>748.463948</ele>
        <time>2022-03-06T01:31:55Z</time>
      </trkpt>
      <trkpt lat="45.78573" lon="2.86058">
        <ele>749.259342</ele>
        <time>2022-03-06T01:32:32Z</time>
      </trkpt>
      <trkpt lat="45.78551" lon="2.8605">
        <ele>749.552044</ele>
        <time>2022-03-06T01:32:56Z</time>
      </trkpt>
      <trkpt lat="45.78544" lon="2.86048">
        <ele>749.650578</ele>
        <time>2022-03-06T01:33:04Z</time>
      </trkpt>
      <trkpt lat="45.78536" lon="2.86022">
        <ele>749.903077</ele>
        <time>2022-03-06T01:33:24Z</time>
      </trkpt>
      <trkpt lat="45.78502" lon="2.85956">
        <ele>750.647584</ele>
        <time>2022-03-06T01:34:24Z</time>
      </trkpt>
      <trkpt lat="45.78476" lon="2.85931">
        <ele>751.052331</ele>
        <time>2022-03-06T01:34:57Z</time>
      </trkpt>
      <trkpt lat="45.78445" lon="2.85933">
        <ele>751.423911</ele>
        <time>2022-03-06T01:35:29Z</time>
      </trkpt>
      <trkpt lat="45.78405" lon="2.85916">
        <ele>751.746387</ele>
        <time>2022-03-06T01:36:12Z</time>
      </trkpt>
      <trkpt lat="45.78322" lon="2.85931">
        <ele>752.387914</ele>
        <time>2022-03-06T01:37:38Z</time>
      </trkpt>
      <trkpt lat="45.78292" lon="2.85922">
        <ele>752.620624</ele>
        <time>2022-03-06T01:38:09Z</time>
      </trkpt>
      <trkpt lat="45.78255" lon="2.85899">
        <ele>753.12343</ele>
        <time>2022-03-06T01:38:51Z</time>
      </trkpt>
      <trkpt lat="45.78228" lon="2.8589">
        <ele>753.568899</ele>
        <time>2022-03-06T01:39:19Z</time>
      </trkpt>
      <trkpt lat="45.78201" lon="2.85892">
        <ele>754.011038</ele>
        <time>2022-03-06T01:39:47Z</time>
      </trkpt>
      <trkpt lat="45.78128" lon="2.85917">
        <ele>755.224307</ele>
        <time>2022-03-06T01:41:07Z</time>
      </trkpt>
      <trkpt lat="45.78057" lon="2.8599">
        <ele>757.657078</ele>
        <time>2022-03-06T01:42:44Z</time>
      </trkpt>
      <trkpt lat="45.77949" lon="2.86039">
        <ele>761.41189</ele>
        <time>2022-03-06T01:44:52Z</time>
      </trkpt>
    </trkseg>
  </trk>
</gpx>